Time;durP1;ratioP1;P1;durP2;ratioP2;P2;SDS_P1;SDS_P2;PMS_P1;PMS_P2;Temp;Humidity;BMP_temperature;BMP_pressure;BME280_temperature;BME280_humidity;BME280_pressure;Samples;Min_cycle;Max_cycle;Signal;HPM_P1;HPM_P2
2023/02/11 00:00:41;;;;;;;22.60;12.67;;;-2.60;99.90;;;;;;4989917;28;20281;-71
2023/02/11 00:03:07;;;;;;;31.67;13.63;;;-2.60;99.90;;;;;;4991559;28;20639;-71
2023/02/11 00:05:33;;;;;;;31.60;14.20;;;-2.60;99.90;;;;;;4990699;28;20416;-71
2023/02/11 00:07:58;;;;;;;26.50;13.07;;;-2.60;99.90;;;;;;4991224;28;20257;-72
2023/02/11 00:10:24;;;;;;;26.17;14.30;;;-2.70;99.90;;;;;;4989492;28;20291;-71
2023/02/11 00:12:49;;;;;;;29.37;14.33;;;-2.70;99.90;;;;;;4991465;28;20218;-71
2023/02/11 00:15:15;;;;;;;27.30;15.10;;;-2.70;99.90;;;;;;4990517;28;20196;-69
2023/02/11 00:17:40;;;;;;;36.83;15.30;;;-2.70;99.90;;;;;;4990998;28;20219;-70
2023/02/11 00:20:06;;;;;;;29.40;14.60;;;-2.70;99.90;;;;;;4991320;28;20192;-70
2023/02/11 00:22:32;;;;;;;35.80;15.33;;;-2.70;99.90;;;;;;4990646;28;20631;-70
2023/02/11 00:24:57;;;;;;;31.40;13.93;;;-2.70;99.90;;;;;;4989911;28;20865;-71
2023/02/11 00:27:23;;;;;;;29.00;13.53;;;-2.70;99.90;;;;;;4990716;28;20195;-71
2023/02/11 00:29:48;;;;;;;41.50;14.73;;;-2.70;99.90;;;;;;4991663;28;20207;-70
2023/02/11 00:32:14;;;;;;;28.90;13.57;;;-2.70;99.90;;;;;;4990709;28;20652;-70
2023/02/11 00:34:39;;;;;;;31.47;14.13;;;-2.70;99.90;;;;;;4990840;28;20198;-70
2023/02/11 00:37:05;;;;;;;26.33;13.57;;;-2.70;99.90;;;;;;4991106;28;20185;-70
2023/02/11 00:39:31;;;;;;;37.50;15.50;;;-2.70;99.90;;;;;;4990909;28;20350;-71
2023/02/11 00:41:57;;;;;;;30.87;14.63;;;-2.80;99.90;;;;;;4991237;28;20222;-71
2023/02/11 00:44:22;;;;;;;30.03;14.70;;;-2.80;99.90;;;;;;4990487;28;20188;-72
2023/02/11 00:46:48;;;;;;;33.13;15.60;;;-2.80;99.90;;;;;;4994453;28;20419;-71
2023/02/11 00:49:13;;;;;;;25.23;13.80;;;-2.80;99.90;;;;;;4994415;28;20657;-70
2023/02/11 00:51:39;;;;;;;24.97;13.50;;;-2.80;99.90;;;;;;4994184;28;20221;-71
2023/02/11 00:54:04;;;;;;;28.93;13.33;;;-2.90;99.90;;;;;;4994382;28;20192;-70
2023/02/11 00:56:30;;;;;;;25.70;13.23;;;-2.90;99.90;;;;;;4993897;28;20188;-70
2023/02/11 00:58:56;;;;;;;30.13;14.37;;;-2.90;99.90;;;;;;4994280;28;20705;-71
2023/02/11 01:01:22;;;;;;;28.63;14.13;;;-2.90;99.90;;;;;;4993881;28;20291;-72
2023/02/11 01:03:48;;;;;;;29.23;13.53;;;-2.90;99.90;;;;;;4994013;28;20196;-71
2023/02/11 01:06:13;;;;;;;32.33;15.57;;;-2.90;99.90;;;;;;4993619;28;20417;-71
2023/02/11 01:08:39;;;;;;;27.90;15.47;;;-3.00;99.90;;;;;;4993080;28;20276;-70
2023/02/11 01:11:10;;;;;;;27.47;14.27;;;-3.00;99.90;;;;;;4993436;28;20730;-71
2023/02/11 01:13:36;;;;;;;29.17;14.00;;;-3.00;99.90;;;;;;4992574;28;20245;-72
2023/02/11 01:16:04;;;;;;;29.73;16.10;;;-3.00;99.90;;;;;;4993806;28;20437;-70
2023/02/11 01:18:30;;;;;;;35.77;14.27;;;-3.00;99.90;;;;;;4993660;28;20704;-70
2023/02/11 01:20:55;;;;;;;35.17;16.70;;;-3.00;99.90;;;;;;4994039;28;20516;-70
2023/02/11 01:23:21;;;;;;;31.73;14.53;;;-3.00;99.90;;;;;;4993647;28;20192;-71
2023/02/11 01:25:47;;;;;;;39.37;15.97;;;-3.00;99.90;;;;;;4993756;28;20193;-73
2023/02/11 01:28:20;;;;;;;34.97;15.17;;;-3.00;99.90;;;;;;4993961;28;20536;-71
2023/02/11 01:30:45;;;;;;;28.23;14.87;;;-3.00;99.90;;;;;;4986496;28;20214;-71
2023/02/11 01:33:11;;;;;;;31.87;15.30;;;-3.00;99.90;;;;;;4992317;28;20469;-73
2023/02/11 01:35:38;;;;;;;30.30;15.03;;;-3.00;99.90;;;;;;4993469;28;20197;-71
2023/02/11 01:38:05;;;;;;;34.33;15.27;;;-3.00;99.90;;;;;;4994123;28;20182;-71
2023/02/11 01:40:30;;;;;;;36.50;16.23;;;-3.00;99.90;;;;;;4993550;28;20433;-71
2023/02/11 01:42:56;;;;;;;35.07;15.07;;;-3.00;99.90;;;;;;4993681;28;20431;-72
2023/02/11 01:45:43;;;;;;;32.33;15.23;;;-3.10;99.90;;;;;;4993425;28;20679;-71
2023/02/11 01:48:15;;;;;;;30.50;15.90;;;-3.00;99.90;;;;;;4993949;28;20583;-71
2023/02/11 01:50:43;;;;;;;26.13;14.40;;;-3.00;99.90;;;;;;4993858;28;20411;-70
2023/02/11 01:58:43;;;;;;;29.00;16.17;;;-3.10;99.90;;;;;;4993180;28;20478;-72
2023/02/11 03:31:53;;;;;;;28.50;14.40;;;-2.90;99.90;;;;;;5493111;22;20496;-73
2023/02/11 03:34:32;;;;;;;25.80;14.07;;;-2.90;99.90;;;;;;5017048;28;20465;-74
2023/02/11 03:37:20;;;;;;;25.23;12.80;;;-2.90;99.90;;;;;;5017999;28;20400;-74
2023/02/11 03:39:57;;;;;;;28.83;13.90;;;-2.90;99.90;;;;;;4998717;28;20410;-73
2023/02/11 03:42:29;;;;;;;32.83;15.00;;;-2.90;99.90;;;;;;5010842;28;20424;-71
2023/02/11 03:45:05;;;;;;;27.30;12.37;;;-2.90;99.90;;;;;;5004045;28;20403;-73
2023/02/11 03:47:33;;;;;;;29.20;13.73;;;-2.90;99.90;;;;;;5010997;28;20410;-74
2023/02/11 03:50:01;;;;;;;23.33;12.30;;;-2.90;99.90;;;;;;5011401;28;20433;-72
2023/02/11 03:52:28;;;;;;;31.73;14.83;;;-2.90;99.90;;;;;;5010728;28;20989;-70
2023/02/11 03:54:57;;;;;;;33.80;14.17;;;-2.80;99.90;;;;;;5010775;28;20728;-70
2023/02/11 03:57:22;;;;;;;23.37;13.47;;;-2.80;99.90;;;;;;5011065;28;20483;-72
2023/02/11 03:59:53;;;;;;;29.50;14.90;;;-2.80;99.90;;;;;;5010911;28;20481;-73
2023/02/11 04:02:21;;;;;;;28.57;15.80;;;-2.70;99.90;;;;;;5010792;28;20229;-73
2023/02/11 04:04:46;;;;;;;29.27;13.87;;;-2.60;99.90;;;;;;5010989;28;20433;-73
2023/02/11 04:07:12;;;;;;;22.00;13.97;;;-2.60;99.90;;;;;;5010815;28;20499;-70
2023/02/11 04:09:38;;;;;;;31.87;16.00;;;-2.50;99.90;;;;;;5010586;28;20334;-70
2023/02/11 04:12:03;;;;;;;27.00;14.50;;;-2.50;99.90;;;;;;5010934;28;20217;-72
2023/02/11 04:14:29;;;;;;;38.63;15.13;;;-2.40;99.90;;;;;;5010368;28;20187;-73
2023/02/11 04:16:54;;;;;;;33.43;14.40;;;-2.30;99.90;;;;;;5010975;28;20184;-71
2023/02/11 04:19:20;;;;;;;29.73;15.73;;;-2.30;99.90;;;;;;5010983;28;20209;-71
2023/02/11 04:21:46;;;;;;;32.03;13.60;;;-2.20;99.90;;;;;;5014344;28;20214;-73
2023/02/11 04:24:11;;;;;;;31.47;15.07;;;-2.10;99.90;;;;;;5014514;28;20200;-71
2023/02/11 04:26:37;;;;;;;29.40;14.50;;;-2.10;99.90;;;;;;5014207;28;20435;-71
2023/02/11 04:29:02;;;;;;;28.00;15.13;;;-2.10;99.90;;;;;;5014531;28;20559;-71
2023/02/11 04:31:28;;;;;;;29.80;14.90;;;-2.10;99.90;;;;;;4996541;28;20273;-72
2023/02/11 04:33:53;;;;;;;27.50;14.43;;;-2.10;99.90;;;;;;5014409;28;20221;-70
2023/02/11 04:36:19;;;;;;;30.37;15.90;;;-2.00;99.90;;;;;;5013525;28;20187;-71
2023/02/11 04:38:44;;;;;;;27.80;13.87;;;-2.00;99.90;;;;;;5014311;28;20607;-72
2023/02/11 04:41:10;;;;;;;26.57;14.20;;;-1.90;99.90;;;;;;5014322;28;20210;-71
2023/02/11 04:43:35;;;;;;;28.70;14.10;;;-1.90;99.90;;;;;;5013981;28;20195;-71
2023/02/11 04:46:01;;;;;;;30.23;14.33;;;-1.80;99.90;;;;;;5014066;28;20210;-72
2023/02/11 04:48:26;;;;;;;27.07;13.50;;;-1.80;99.90;;;;;;5014800;28;20541;-72
2023/02/11 04:50:52;;;;;;;27.80;14.63;;;-1.70;99.90;;;;;;5013863;28;20249;-71
2023/02/11 04:53:17;;;;;;;31.60;13.93;;;-1.60;99.90;;;;;;5014338;28;20246;-71
2023/02/11 04:55:43;;;;;;;25.73;12.90;;;-1.50;99.90;;;;;;5013461;28;20699;-72
2023/02/11 04:58:08;;;;;;;28.20;14.63;;;-1.50;99.90;;;;;;5014233;28;20187;-71
2023/02/11 05:00:34;;;;;;;31.07;15.80;;;-1.50;99.90;;;;;;5014076;28;20248;-72
2023/02/11 05:02:59;;;;;;;25.17;14.47;;;-1.40;99.90;;;;;;5014156;28;20179;-71
2023/02/11 05:05:25;;;;;;;30.07;15.30;;;-1.40;99.90;;;;;;5013852;28;20231;-72
2023/02/11 05:07:51;;;;;;;34.27;14.83;;;-1.30;99.90;;;;;;5013739;28;20275;-72
2023/02/11 05:10:16;;;;;;;28.03;15.90;;;-1.30;99.90;;;;;;5014061;28;20191;-72
2023/02/11 05:12:42;;;;;;;29.30;16.07;;;-1.30;99.90;;;;;;5013839;28;20226;-72
2023/02/11 05:15:07;;;;;;;26.50;14.87;;;-1.20;99.90;;;;;;5014101;28;20190;-72
2023/02/11 05:17:33;;;;;;;33.50;14.93;;;-1.20;99.90;;;;;;5013350;28;20667;-72
2023/02/11 05:19:58;;;;;;;33.77;15.27;;;-1.10;99.90;;;;;;5014274;28;20205;-72
2023/02/11 05:22:24;;;;;;;30.40;13.83;;;-1.20;99.90;;;;;;5013477;28;20261;-71
2023/02/11 05:24:49;;;;;;;31.10;15.10;;;-1.10;99.90;;;;;;5013610;28;20201;-72
2023/02/11 05:27:15;;;;;;;33.67;16.37;;;-1.00;99.90;;;;;;5013635;28;20188;-73
2023/02/11 05:29:40;;;;;;;31.47;16.03;;;-1.00;99.90;;;;;;5013292;28;20804;-72
2023/02/11 05:32:07;;;;;;;31.20;16.23;;;-1.00;99.90;;;;;;5012577;28;20630;-73
2023/02/11 05:34:34;;;;;;;27.37;16.00;;;-0.90;99.90;;;;;;5012966;28;20667;-72
2023/02/11 05:36:59;;;;;;;30.53;15.80;;;-0.80;99.90;;;;;;5013741;28;20426;-71
2023/02/11 05:39:25;;;;;;;31.20;15.70;;;-0.80;99.90;;;;;;5013696;28;20523;-72
2023/02/11 05:41:50;;;;;;;27.93;16.70;;;-0.80;99.90;;;;;;5013375;28;20634;-72
2023/02/11 05:44:16;;;;;;;32.03;15.17;;;-0.80;99.90;;;;;;5013514;28;20265;-72
2023/02/11 05:46:41;;;;;;;31.20;15.83;;;-0.70;99.90;;;;;;5021305;28;20203;-73
2023/02/11 05:49:07;;;;;;;29.17;16.40;;;-0.70;99.90;;;;;;5013393;28;20270;-73
2023/02/11 05:51:32;;;;;;;30.57;16.13;;;-0.60;99.90;;;;;;5013126;28;20565;-72
2023/02/11 05:53:58;;;;;;;28.60;15.43;;;-0.60;99.90;;;;;;5013068;28;20215;-71
2023/02/11 05:56:23;;;;;;;29.27;14.97;;;-0.60;99.90;;;;;;5012683;28;20187;-72
2023/02/11 05:58:49;;;;;;;32.27;17.73;;;-0.60;99.90;;;;;;4995075;28;20203;-72
2023/02/11 06:01:14;;;;;;;30.80;16.73;;;-0.50;99.90;;;;;;5012688;28;20346;-73
2023/02/11 06:03:40;;;;;;;31.33;16.53;;;-0.50;99.90;;;;;;5012334;28;20234;-72
2023/02/11 06:06:11;;;;;;;30.27;17.63;;;-0.50;99.90;;;;;;5012606;28;20642;-73
2023/02/11 06:08:38;;;;;;;35.93;18.20;;;-0.50;99.90;;;;;;5012320;28;20607;-72
2023/02/11 06:11:03;;;;;;;31.67;17.63;;;-0.40;99.90;;;;;;5012658;28;20453;-72
2023/02/11 06:13:29;;;;;;;27.47;16.63;;;-0.40;99.90;;;;;;5012430;28;20475;-71
2023/02/11 06:15:56;;;;;;;25.47;16.33;;;-0.30;99.90;;;;;;5012195;28;20190;-72
2023/02/11 06:18:21;;;;;;;34.17;17.20;;;-0.40;99.90;;;;;;5012461;28;20201;-72
2023/02/11 06:20:47;;;;;;;34.53;18.77;;;-0.30;99.90;;;;;;5007204;28;20817;-71
2023/02/11 06:23:12;;;;;;;33.80;18.17;;;-0.30;99.90;;;;;;5012165;28;20201;-72
2023/02/11 06:25:38;;;;;;;40.27;17.67;;;-0.20;99.90;;;;;;5011483;28;20275;-71
2023/02/11 06:28:03;;;;;;;30.90;17.60;;;-0.20;99.90;;;;;;5012372;28;20192;-72
2023/02/11 06:30:29;;;;;;;30.00;15.77;;;-0.10;99.90;;;;;;5012265;28;20204;-72
2023/02/11 06:32:54;;;;;;;33.03;17.20;;;-0.10;99.90;;;;;;5012026;28;20732;-70
2023/02/11 06:35:20;;;;;;;38.57;18.00;;;-0.20;99.90;;;;;;5012007;28;20678;-69
2023/02/11 06:37:46;;;;;;;34.53;16.67;;;-0.10;99.90;;;;;;4994032;28;20181;-70
2023/02/11 06:40:12;;;;;;;31.00;17.80;;;0.00;99.90;;;;;;5012129;28;20270;-70
2023/02/11 06:42:38;;;;;;;34.77;17.17;;;0.00;99.90;;;;;;5011282;28;20538;-72
2023/02/11 06:45:08;;;;;;;28.80;16.70;;;0.00;99.90;;;;;;5011828;28;20184;-71
2023/02/11 06:47:33;;;;;;;32.20;16.57;;;0.00;99.90;;;;;;5011741;28;20408;-69
2023/02/11 06:49:59;;;;;;;32.07;17.00;;;0.00;99.90;;;;;;5011771;28;20782;-70
2023/02/11 06:52:24;;;;;;;33.30;17.70;;;0.00;99.90;;;;;;5011553;28;20297;-70
2023/02/11 06:54:50;;;;;;;34.90;17.90;;;0.00;99.90;;;;;;5011377;28;20198;-71
2023/02/11 06:57:15;;;;;;;27.50;16.53;;;0.00;99.90;;;;;;5011863;28;20723;-71
2023/02/11 06:59:41;;;;;;;32.60;18.20;;;0.00;99.90;;;;;;5011639;28;20268;-71
2023/02/11 07:02:09;;;;;;;31.10;19.03;;;0.10;99.90;;;;;;5008808;28;20212;-71
2023/02/11 07:04:34;;;;;;;35.60;19.63;;;0.10;99.90;;;;;;5008166;28;20241;-69
2023/02/11 07:07:00;;;;;;;40.67;18.07;;;0.20;99.90;;;;;;5005953;28;20610;-71
2023/02/11 07:09:25;;;;;;;31.23;17.70;;;0.20;99.90;;;;;;5011763;28;20568;-71
2023/02/11 07:11:51;;;;;;;35.37;17.77;;;0.20;99.90;;;;;;5011850;28;20298;-72
2023/02/11 07:14:16;;;;;;;37.37;18.80;;;0.20;99.90;;;;;;5011694;28;20274;-71
2023/02/11 07:16:42;;;;;;;37.30;18.53;;;0.20;99.90;;;;;;5011278;28;20295;-70
2023/02/11 07:19:08;;;;;;;33.70;19.00;;;0.30;99.90;;;;;;5011719;28;20188;-70
2023/02/11 07:21:33;;;;;;;33.07;18.37;;;0.30;99.90;;;;;;5010975;28;20221;-70
2023/02/11 07:23:59;;;;;;;34.30;17.07;;;0.40;99.90;;;;;;4993278;28;20219;-70
2023/02/11 07:26:25;;;;;;;38.20;17.20;;;0.50;99.90;;;;;;5009799;28;20644;-70
2023/02/11 07:28:51;;;;;;;33.73;19.00;;;0.50;99.90;;;;;;4983997;28;20224;-71
2023/02/11 07:31:20;;;;;;;39.83;18.97;;;0.60;99.90;;;;;;5010693;28;20977;-71
2023/02/11 07:33:46;;;;;;;31.50;18.70;;;0.80;99.90;;;;;;5010286;28;20542;-69
2023/02/11 07:36:14;;;;;;;36.33;19.53;;;0.80;99.90;;;;;;5011053;28;20930;-70
2023/02/11 07:38:40;;;;;;;40.10;20.00;;;1.00;99.90;;;;;;5010675;28;20280;-71
2023/02/11 07:41:08;;;;;;;34.43;19.97;;;1.10;99.90;;;;;;5010424;28;20417;-70
2023/02/11 07:43:35;;;;;;;36.40;20.40;;;1.10;99.90;;;;;;5011058;28;20432;-70
2023/02/11 07:46:06;;;;;;;40.53;21.63;;;1.20;99.90;;;;;;5010586;28;20414;-70
2023/02/11 07:48:31;;;;;;;36.47;21.30;;;1.30;99.90;;;;;;5010699;28;20518;-70
2023/02/11 07:51:08;;;;;;;36.93;20.40;;;1.40;99.90;;;;;;5010645;28;20543;-71
2023/02/11 07:53:34;;;;;;;34.77;20.17;;;1.50;99.90;;;;;;5011016;28;20530;-71
2023/02/11 07:56:02;;;;;;;36.43;18.73;;;1.50;99.90;;;;;;5013956;28;20519;-70
2023/02/11 07:58:27;;;;;;;37.53;19.03;;;1.50;99.90;;;;;;5014610;28;20682;-70
2023/02/11 08:00:53;;;;;;;36.93;19.40;;;1.60;99.90;;;;;;5014327;28;20481;-68
2023/02/11 08:03:18;;;;;;;39.60;20.40;;;1.60;99.90;;;;;;5014475;28;20187;-69
2023/02/11 08:05:44;;;;;;;32.20;18.97;;;1.70;99.90;;;;;;5014251;28;20658;-70
2023/02/11 08:08:09;;;;;;;31.00;18.57;;;1.80;99.90;;;;;;5015320;28;20196;-70
2023/02/11 08:10:35;;;;;;;39.50;19.27;;;1.90;99.90;;;;;;5014466;28;20189;-71
2023/02/11 08:13:01;;;;;;;35.07;19.83;;;2.00;99.90;;;;;;5014745;28;20212;-69
2023/02/11 08:15:26;;;;;;;38.00;22.00;;;2.20;99.90;;;;;;5014747;28;20436;-71
2023/02/11 08:17:52;;;;;;;48.13;20.23;;;2.30;99.90;;;;;;5015015;28;20199;-70
2023/02/11 08:20:17;;;;;;;30.70;19.83;;;2.30;99.90;;;;;;4997163;28;20236;-68
2023/02/11 08:22:43;;;;;;;35.90;19.07;;;2.40;99.90;;;;;;5014517;28;20206;-70
2023/02/11 08:25:08;;;;;;;37.87;19.73;;;2.50;99.90;;;;;;5014442;28;20202;-69
2023/02/11 08:27:34;;;;;;;35.83;19.60;;;2.70;99.90;;;;;;5014173;28;20558;-70
2023/02/11 08:30:00;;;;;;;34.67;19.40;;;2.70;99.90;;;;;;5014129;28;20200;-71
2023/02/11 08:32:26;;;;;;;31.67;20.40;;;2.90;99.90;;;;;;5014396;28;20707;-70
2023/02/11 08:34:52;;;;;;;36.23;20.60;;;2.90;99.90;;;;;;5013999;28;20446;-71
2023/02/11 08:37:18;;;;;;;34.00;20.70;;;3.10;99.90;;;;;;5014354;28;20209;-70
2023/02/11 08:39:46;;;;;;;30.77;19.17;;;3.10;99.90;;;;;;5014326;28;20444;-71
2023/02/11 08:42:12;;;;;;;31.10;19.80;;;3.20;99.90;;;;;;5014481;28;20474;-71
2023/02/11 08:44:37;;;;;;;34.30;20.10;;;3.30;99.90;;;;;;5014147;28;20444;-71
2023/02/11 08:47:03;;;;;;;32.33;20.50;;;3.40;99.90;;;;;;5014013;28;20468;-71
2023/02/11 08:49:29;;;;;;;32.30;20.57;;;3.60;99.90;;;;;;5014522;28;20196;-71
2023/02/11 08:51:55;;;;;;;35.60;21.50;;;3.70;99.90;;;;;;5014024;28;20733;-72
2023/02/11 08:54:20;;;;;;;34.57;21.30;;;4.30;99.90;;;;;;5013926;28;20453;-71
2023/02/11 08:56:50;;;;;;;37.47;21.67;;;4.90;99.90;;;;;;5013721;28;20198;-70
2023/02/11 08:59:16;;;;;;;34.20;21.10;;;5.40;99.90;;;;;;5013976;28;20184;-71
2023/02/11 09:01:42;;;;;;;32.37;20.43;;;5.70;99.90;;;;;;5013670;28;20454;-69
2023/02/11 09:04:09;;;;;;;35.10;21.13;;;5.90;99.90;;;;;;5014013;28;20799;-71
2023/02/11 09:06:34;;;;;;;32.53;18.90;;;6.10;99.90;;;;;;5012534;28;20522;-73
2023/02/11 09:09:00;;;;;;;35.90;21.47;;;6.20;99.90;;;;;;5013754;28;20901;-71
2023/02/11 09:11:31;;;;;;;34.23;21.20;;;6.40;99.90;;;;;;5013758;28;20295;-73
2023/02/11 09:13:57;;;;;;;41.63;22.87;;;6.90;99.90;;;;;;4995852;28;20212;-72
2023/02/11 09:16:26;;;;;;;34.67;21.57;;;7.00;99.90;;;;;;5013654;28;20483;-72
2023/02/11 09:18:52;;;;;;;29.80;20.07;;;7.00;99.90;;;;;;5013557;28;20428;-71
2023/02/11 09:21:18;;;;;;;37.17;21.30;;;7.10;99.90;;;;;;5013767;28;20491;-72
2023/02/11 09:23:46;;;;;;;35.10;21.67;;;7.50;99.90;;;;;;5013386;28;20203;-71
2023/02/11 09:26:13;;;;;;;30.53;20.63;;;8.00;99.90;;;;;;4996457;28;20432;-73
2023/02/11 09:28:39;;;;;;;48.90;20.80;;;8.30;99.90;;;;;;5013425;28;20437;-72
2023/02/11 09:31:15;;;;;;;31.00;17.67;;;8.60;99.90;;;;;;5013096;28;21019;-71
2023/02/11 09:33:46;;;;;;;27.83;18.20;;;8.90;99.90;;;;;;4995917;28;20215;-71
2023/02/11 09:36:27;;;;;;;27.03;18.50;;;9.20;99.90;;;;;;5013444;28;20860;-72
2023/02/11 09:38:53;;;;;;;30.63;20.73;;;9.20;99.90;;;;;;5013483;28;20513;-73
2023/02/11 09:41:38;;;;;;;28.30;19.60;;;9.50;99.90;;;;;;5013457;28;20495;-72
2023/02/11 09:44:09;;;;;;;26.57;17.80;;;9.70;99.90;;;;;;4995538;28;20433;-73
2023/02/11 09:46:40;;;;;;;22.67;16.57;;;9.90;99.90;;;;;;5013322;28;20449;-72
2023/02/11 09:49:06;;;;;;;25.17;18.27;;;10.40;99.90;;;;;;5013343;28;20436;-73
2023/02/11 09:52:00;;;;;;;23.40;16.87;;;10.70;99.90;;;;;;5013247;28;20460;-72
2023/02/11 09:54:32;;;;;;;32.37;20.30;;;11.00;99.90;;;;;;5007246;28;20425;-73
2023/02/11 09:56:58;;;;;;;27.50;18.30;;;11.20;99.90;;;;;;5013222;28;20440;-70
2023/02/11 09:59:23;;;;;;;34.80;20.50;;;11.50;99.90;;;;;;5012868;28;20809;-72
2023/02/11 10:01:56;;;;;;;33.23;19.57;;;11.60;99.90;;;;;;5012834;28;20210;-72
2023/02/11 10:04:46;;;;;;;29.20;17.50;;;11.80;99.90;;;;;;5012880;28;20558;-72
2023/02/11 10:07:32;;;;;;;28.23;18.87;;;11.50;99.90;;;;;;5005356;28;20425;-71
2023/02/11 10:10:23;;;;;;;28.90;19.80;;;11.20;99.90;;;;;;5013101;28;20433;-70
2023/02/11 10:13:16;;;;;;;23.50;16.87;;;10.90;99.90;;;;;;5012705;28;20472;-70
2023/02/11 10:16:12;;;;;;;22.17;16.37;;;10.80;99.90;;;;;;4995347;28;20444;-71
2023/02/11 10:18:52;;;;;;;25.30;15.30;;;10.80;99.90;;;;;;4979814;28;20918;-70
2023/02/11 10:22:02;;;;;;;22.30;15.40;;;11.00;99.90;;;;;;5005962;28;20426;-73
2023/02/11 10:24:28;;;;;;;19.50;12.90;;;11.60;99.90;;;;;;4933211;29;20477;-71
2023/02/11 10:26:54;;;;;;;20.40;13.60;;;12.20;99.90;;;;;;4991946;28;20429;-72
2023/02/11 10:29:42;;;;;;;17.53;13.53;;;12.40;99.90;;;;;;5013418;28;20405;-71
2023/02/11 10:32:31;;;;;;;16.63;11.17;;;12.40;99.90;;;;;;5012590;28;20561;-71
2023/02/11 10:35:09;;;;;;;40.50;18.03;;;12.40;99.90;;;;;;5013013;28;20806;-72
2023/02/11 10:37:34;;;;;;;32.20;19.30;;;12.50;99.90;;;;;;5013039;28;20960;-72
2023/02/11 10:40:00;;;;;;;38.50;18.53;;;12.50;99.90;;;;;;5013057;28;20422;-71
2023/02/11 10:42:26;;;;;;;31.27;18.37;;;12.40;99.90;;;;;;5012800;28;20207;-73
2023/02/11 10:45:01;;;;;;;24.00;17.90;;;12.30;99.90;;;;;;5012458;28;20616;-72
2023/02/11 10:47:32;;;;;;;11.40;8.27;;;11.90;99.90;;;;;;5013335;28;20421;-72
2023/02/11 10:50:02;;;;;;;16.53;12.00;;;12.00;99.90;;;;;;5021469;28;20849;-72
2023/02/11 10:52:29;;;;;;;6.13;5.50;;;11.80;99.90;;;;;;5008138;28;20564;-72
2023/02/11 10:55:02;;;;;;;7.30;5.63;;;12.10;99.90;;;;;;5011935;28;20445;-70
2023/02/11 10:57:34;;;;;;;10.20;5.87;;;12.20;99.90;;;;;;5010115;28;20402;-71
2023/02/11 11:00:06;;;;;;;8.07;5.63;;;12.50;99.90;;;;;;5013241;28;20872;-74
2023/02/11 11:02:37;;;;;;;7.13;5.17;;;12.60;99.90;;;;;;5011766;28;20449;-72
2023/02/11 11:05:13;;;;;;;6.70;5.47;;;12.70;99.90;;;;;;5012350;28;20410;-73
2023/02/11 11:07:49;;;;;;;5.90;5.00;;;12.80;99.90;;;;;;5012382;28;20424;-71
2023/02/11 11:10:42;;;;;;;8.43;5.67;;;12.70;99.90;;;;;;5004867;28;20974;-72
2023/02/11 11:13:32;;;;;;;6.17;5.17;;;12.80;99.90;;;;;;5013577;28;20523;-72
2023/02/11 11:16:12;;;;;;;6.53;5.27;;;12.70;99.90;;;;;;4983589;28;20741;-71
2023/02/11 11:18:39;;;;;;;8.10;5.20;;;13.10;99.90;;;;;;5012566;28;20837;-71
2023/02/11 11:21:12;;;;;;;6.83;5.40;;;13.40;99.90;;;;;;5009908;28;20430;-71
2023/02/11 11:23:39;;;;;;;6.00;4.97;;;13.60;99.90;;;;;;5011666;28;20476;-72
2023/02/11 11:26:13;;;;;;;6.10;5.50;;;13.50;99.90;;;;;;5011774;28;20425;-71
2023/02/11 11:28:58;;;;;;;6.27;5.20;;;13.00;99.90;;;;;;5011596;28;20951;-71
2023/02/11 11:31:35;;;;;;;5.50;4.73;;;13.00;99.90;;;;;;5004782;28;20863;-71
2023/02/11 11:34:19;;;;;;;6.20;5.40;;;13.00;99.90;;;;;;5012377;28;20515;-72
2023/02/11 11:36:45;;;;;;;8.40;5.90;;;13.00;99.90;;;;;;5011614;28;20925;-71
2023/02/11 11:39:29;;;;;;;7.77;6.30;;;13.30;99.90;;;;;;5012028;28;20431;-71
2023/02/11 11:42:01;;;;;;;10.23;6.40;;;13.10;99.90;;;;;;5011696;28;20206;-72
2023/02/11 11:44:34;;;;;;;7.67;6.10;;;13.20;99.90;;;;;;5011670;28;20417;-71
2023/02/11 11:47:17;;;;;;;10.57;6.70;;;13.10;99.90;;;;;;5011583;28;20513;-71
2023/02/11 11:50:20;;;;;;;8.00;6.50;;;13.10;99.90;;;;;;5011606;28;20418;-70
2023/02/11 11:53:10;;;;;;;14.60;6.50;;;13.20;99.90;;;;;;5007531;28;20472;-72
2023/02/11 11:55:52;;;;;;;8.03;5.80;;;13.20;99.90;;;;;;5005623;28;20417;-72
2023/02/11 11:58:21;;;;;;;8.43;6.57;;;13.20;99.90;;;;;;5011452;28;20933;-71
2023/02/11 12:01:10;;;;;;;7.30;6.27;;;13.00;99.90;;;;;;5011346;28;20437;-72
2023/02/11 12:04:09;;;;;;;9.27;6.50;;;12.90;99.90;;;;;;5005854;28;20426;-71
2023/02/11 12:06:53;;;;;;;9.13;6.10;;;12.80;99.90;;;;;;5005357;28;20783;-71
2023/02/11 12:09:32;;;;;;;9.00;6.10;;;12.70;99.90;;;;;;5007426;28;20889;-71
2023/02/11 12:12:05;;;;;;;9.50;7.20;;;12.80;99.90;;;;;;5014157;28;20536;-71
2023/02/11 12:14:51;;;;;;;8.70;7.30;;;12.70;99.90;;;;;;5011399;28;20421;-69
2023/02/11 12:17:29;;;;;;;9.87;7.73;;;12.60;99.90;;;;;;5011508;28;20773;-71
2023/02/11 12:20:30;;;;;;;11.17;6.93;;;12.80;99.90;;;;;;5011465;28;20413;-70
2023/02/11 12:23:20;;;;;;;8.90;7.85;;;12.80;99.90;;;;;;5011328;28;20394;-71
2023/02/11 12:26:10;;;;;;;9.40;6.70;;;12.90;99.90;;;;;;5011435;28;20236;-72
2023/02/11 12:28:42;;;;;;;14.97;8.17;;;12.90;99.90;;;;;;5004622;28;20789;-71
2023/02/11 12:31:34;;;;;;;8.57;6.87;;;12.60;99.90;;;;;;5009801;28;20433;-72
2023/02/11 12:34:30;;;;;;;11.23;7.13;;;12.40;99.90;;;;;;5010560;28;20469;-71
2023/02/11 12:37:28;;;;;;;8.70;7.10;;;12.10;99.90;;;;;;5010233;28;20432;-72
2023/02/11 12:39:56;;;;;;;12.13;7.37;;;11.90;99.90;;;;;;4954303;28;20976;-71
2023/02/11 12:45:09;;;;;;;10.60;7.83;;;11.90;99.90;;;;;;5014924;28;20475;-71
2023/02/11 12:47:35;;;;;;;9.60;7.33;;;11.80;99.90;;;;;;5014630;28;20411;-72
2023/02/11 12:50:26;;;;;;;8.70;7.10;;;11.70;99.90;;;;;;5015043;28;20191;-72
2023/02/11 12:53:07;;;;;;;9.63;7.20;;;11.40;99.90;;;;;;5014869;28;20233;-72
2023/02/11 12:55:37;;;;;;;13.57;7.33;;;11.40;99.90;;;;;;5014775;28;20406;-72
2023/02/11 12:58:05;;;;;;;12.20;8.43;;;11.40;99.90;;;;;;5014726;28;20409;-72
2023/02/11 13:00:41;;;;;;;8.30;6.90;;;11.30;99.90;;;;;;5014654;28;20439;-72
2023/02/11 13:03:15;;;;;;;12.20;8.00;;;11.20;99.90;;;;;;5022940;28;20424;-73
2023/02/11 13:05:56;;;;;;;15.47;8.00;;;11.10;99.90;;;;;;5022618;28;20488;-72
2023/02/11 13:08:32;;;;;;;15.60;9.20;;;11.00;99.90;;;;;;5014940;28;20413;-72
2023/02/11 13:11:23;;;;;;;12.33;9.00;;;11.00;99.90;;;;;;4996809;28;20828;-71
2023/02/11 13:13:59;;;;;;;18.50;11.30;;;11.00;99.90;;;;;;5006233;28;20476;-72
2023/02/11 13:16:42;;;;;;;19.87;12.37;;;11.00;99.90;;;;;;5006834;28;20412;-74
2023/02/11 13:19:41;;;;;;;19.03;13.10;;;10.90;99.90;;;;;;5014290;28;20417;-71
2023/02/11 13:22:23;;;;;;;22.60;12.80;;;10.80;99.90;;;;;;5014307;28;20432;-70
2023/02/11 13:25:18;;;;;;;22.80;14.17;;;10.70;99.90;;;;;;5014309;28;20412;-71
2023/02/11 13:27:58;;;;;;;19.60;13.60;;;10.60;99.90;;;;;;5009492;28;20961;-71
2023/02/11 13:30:32;;;;;;;21.20;14.13;;;10.70;99.90;;;;;;5014285;28;20909;-72
2023/02/11 13:32:59;;;;;;;24.37;15.10;;;10.60;99.90;;;;;;5014284;28;20547;-71
2023/02/11 13:35:38;;;;;;;23.30;14.93;;;10.50;99.90;;;;;;5006394;28;20919;-72
2023/02/11 13:38:16;;;;;;;27.20;15.50;;;10.30;99.90;;;;;;5014067;28;20417;-71
2023/02/11 13:40:42;;;;;;;28.77;15.53;;;10.30;99.90;;;;;;5014107;28;20451;-72
2023/02/11 13:43:28;;;;;;;28.93;16.20;;;10.40;99.90;;;;;;5014116;28;20421;-72
2023/02/11 13:46:04;;;;;;;20.23;14.23;;;10.40;99.90;;;;;;5013973;28;20529;-70
2023/02/11 13:48:38;;;;;;;26.00;15.20;;;10.30;99.90;;;;;;5006773;28;20425;-73
2023/02/11 13:51:09;;;;;;;25.60;17.00;;;10.30;99.90;;;;;;5013461;28;20535;-72
2023/02/11 13:53:55;;;;;;;25.50;15.20;;;10.10;99.90;;;;;;5012807;28;20473;-72
2023/02/11 13:56:29;;;;;;;23.93;15.30;;;10.10;99.90;;;;;;5013671;28;20418;-72
2023/02/11 13:58:56;;;;;;;23.70;15.17;;;10.00;99.90;;;;;;5013679;28;20412;-73
2023/02/11 14:10:42;;;;;;;31.13;16.40;;;9.80;99.90;;;;;;5013568;28;20431;-72
2023/02/11 14:13:29;;;;;;;20.43;14.63;;;9.60;99.90;;;;;;5013011;28;20567;-72
2023/02/11 14:16:05;;;;;;;19.50;13.73;;;9.70;99.90;;;;;;5013378;28;20445;-72
2023/02/11 14:18:43;;;;;;;25.90;15.20;;;9.70;99.90;;;;;;5005981;28;20431;-72
2023/02/11 14:21:27;;;;;;;29.03;16.03;;;9.60;99.90;;;;;;5013135;28;20502;-72
2023/02/11 14:24:13;;;;;;;23.70;15.83;;;9.70;99.90;;;;;;5013165;28;20516;-72
2023/02/11 14:26:41;;;;;;;19.00;14.33;;;9.60;99.90;;;;;;5012857;28;20434;-73
2023/02/11 14:29:22;;;;;;;18.70;12.47;;;9.70;99.90;;;;;;5013287;28;20440;-72
2023/02/11 14:32:16;;;;;;;21.27;12.60;;;9.60;99.90;;;;;;5012805;28;20825;-72
2023/02/11 14:35:07;;;;;;;22.13;11.80;;;9.60;99.90;;;;;;5006960;28;20961;-72
2023/02/11 14:37:55;;;;;;;21.70;12.30;;;9.60;99.90;;;;;;5005716;28;20879;-73
2023/02/11 14:40:47;;;;;;;21.57;12.87;;;9.60;99.90;;;;;;5012473;28;20413;-73